CheckWX is a tool to help pilots better visualize weather data.  It is not intended as a substitute for an official pre-flight weather briefing.

04:12:45 UTC

KBAD METAR
Barksdale Air Force Base
Bossier City, Louisiana, USA
Current

1 hour ago

KBAD 120256Z AUTO 20003KT 10SM CLR 31/31 A2991 RMK AO2 SLP129 T03130307 57005
Observed
Jul-12 @ 02:56 UTC
Wind
  • 200° at 3 KTS
Visibility
10 SM
Flight Rules
VFR
Cloud Levels
  • Clear skies
Temperature
31°C / 88°F
Dewpoint
31°C / 88°F
Humidity
100%
Altimeter
29.91" Hg
Pressure
1012.92 hPa
Previous

2 hours ago

KBAD 120156Z AUTO 23005KT 10SM CLR 32/31 A2991 RMK AO2 SLP129 T03200308
Observed
Jul-12 @ 01:56 UTC
Wind
  • 230° at 5 KTS
Visibility
10 SM
Flight Rules
VFR
Cloud Levels
  • Clear skies
Temperature
32°C / 90°F
Dewpoint
31°C / 88°F
Humidity
94%
Altimeter
29.91" Hg
Pressure
1012.92 hPa
Previous

3 hours ago

KBAD 120056Z AUTO 24005KT 10SM CLR 34/32 A2992 RMK AO2 SLP133 T03360315
Observed
Jul-12 @ 00:56 UTC
Wind
  • 240° at 5 KTS
Visibility
10 SM
Flight Rules
VFR
Cloud Levels
  • Clear skies
Temperature
34°C / 93°F
Dewpoint
32°C / 90°F
Humidity
89%
Altimeter
29.92" Hg
Pressure
1013.22 hPa